Terminal Aerodrome Forecast
Issued by NWS Wilmington, OH

Current Version | Previous Version | Graphics & Text | Print | Product List | Glossary On
Versions: 1 2 3 4 5 6 7 8 9 10 11 12 13 14 15 16 17 18 19 20 21 22 23
218
FTUS41 KILN 201009 AAB
TAFILN
TAF AMD
KILN 201009Z 2010/2106 20003KT 1 1/2SM BR FEW011
     FM201300 25006KT P6SM SCT100
     FM201800 27007KT P6SM VCTS BKN040CB
     FM210100 02006KT P6SM SCT080=

USA.gov is the U.S. government's official web portal to all federal, state and local government web resources and services.